Shirley, NY

7:17 AM EST on January 31, 2015 (GMT -0500)
Residential higher plateau | Change Station
CLOSE
Current Station
Personal Weather Station
Location: Shirley, NY
Elevation: 69 ft
Nearby Weather Stations

Elev 69 ft 40.80 °N, 72.87 °W | Updated 4 minutes ago

Clear
Clear
12.0 °F
Feels Like -1 °F
N
9.4
Wind Variable Wind from West

Today
High -- | Low -- °F
--% Chance of Precip.
Yesterday
High -- | Low -- °F
Precip. -- in
7:02 AM 5:07 PM
Waxing Gibbous, 89% visible
Pressure 30.00 in
Visibility 10.0 miles
Clouds Clear
Windchill -1 °F
Dew Point -5 °F
Humidity 46%
Rainfall 0.00 in
Snow Depth Not available.
UV 0 out of 12
Pollen .10 out of 12
Air Quality Not available.
Flu Activity Not available.
METAR KHWV 311156Z AUTO 33016G29KT 10SM CLR M11/M21 A2999 RMK AO2 PK WND 32033/1100 SLP157 70003 T11061211 11072 21106 51008 TSNO

More Conditions Fewer Conditions

Pressure 30.00 in
Visibility 10.0 miles
Clouds Clear
Windchill -1 °F
Dew Point -5 °F
Humidity 46%
Rainfall 0.00 in
Snow Depth Not available.
UV 0 out of 12
Pollen .10 out of 12
Air Quality Not available.
Flu Activity Not available.
METAR KHWV 311156Z AUTO 33016G29KT 10SM CLR M11/M21 A2999 RMK AO2 PK WND 32033/1100 SLP157 70003 T11061211 11072 21106 51008 TSNO

More Conditions Fewer Conditions

10-Day Weather Forecast

Almanac

Astronomy

Jan. 31, 2015 Rise Set
Actual Time
Civil Twilight
Nautical Twilight
Astronomical Twilight
Moon
Length of Visible Light
Length of Day
Tomorrow will be .
, % of the Moon is Illuminated

Today's Extremes

State Highs State Lows

Community

WunderPhotos

Upload Photos

1,792,036 photos uploaded!

WunderBlogs® & News

Nearby

Air Quality

  Air Quality AQ Index Pollutant
Not available.

Snow Depth

Station Depth Elevation

Earthquake Activity

City Distance Mag. Time & Date
Minimum magnitude displayed is 2.5.

Coastal Water Temperatures

Place Temperature

Nearby Weather Stations